createdAt,value
2022-11-07T00:03:20.690Z,7.89
2022-11-07T00:08:32.042Z,8.01
2022-11-07T00:13:34.206Z,8.08
2022-11-07T00:18:36.536Z,7.99
2022-11-07T00:23:41.431Z,8.09
2022-11-07T00:28:43.997Z,7.91
2022-11-07T00:33:46.116Z,8.08
2022-11-07T00:38:48.316Z,8.05
2022-11-07T00:43:50.181Z,8.12
2022-11-07T00:48:52.551Z,8.14
2022-11-07T00:53:54.916Z,8.14
2022-11-07T00:58:58.553Z,8.24
2022-11-07T01:04:18.953Z,8.11
2022-11-07T01:09:22.101Z,8.24
2022-11-07T01:14:24.171Z,8.21
2022-11-07T01:19:26.075Z,8.08
2022-11-07T01:24:28.175Z,8.23
2022-11-07T01:29:30.178Z,8.14
2022-11-07T01:34:32.226Z,8.21
2022-11-07T01:39:34.132Z,8.23
2022-11-07T01:44:42.313Z,8.16
2022-11-07T01:49:44.597Z,8.35
2022-11-07T01:55:09.746Z,8.55
2022-11-07T02:00:15.281Z,8.58
2022-11-07T02:05:32.688Z,8.74
2022-11-07T02:10:35.125Z,8.86
2022-11-07T02:15:37.225Z,8.80
2022-11-07T02:20:39.264Z,8.86
2022-11-07T02:25:41.420Z,8.91
2022-11-07T02:30:43.450Z,9.09
2022-11-07T02:35:47.638Z,8.95
2022-11-07T02:40:58.612Z,8.90
2022-11-07T02:46:03.943Z,9.01
2022-11-07T02:51:06.422Z,9.10
2022-11-07T02:56:09.363Z,9.06
2022-11-07T03:01:12.487Z,9.29
2022-11-07T03:06:17.124Z,9.36
2022-11-07T03:11:22.332Z,9.39
2022-11-07T03:16:24.230Z,9.11
2022-11-07T03:21:26.095Z,9.11
2022-11-07T03:26:28.027Z,9.18
2022-11-07T03:31:29.915Z,9.33
2022-11-07T03:36:31.991Z,9.45
2022-11-07T03:41:33.854Z,9.48
2022-11-07T03:46:35.719Z,9.57
2022-11-07T03:51:37.839Z,9.50
2022-11-07T03:56:39.945Z,9.39
2022-11-07T04:01:42.011Z,9.53
2022-11-07T04:06:44.284Z,9.71
2022-11-07T04:12:04.721Z,9.83
2022-11-07T04:17:20.304Z,9.97
2022-11-07T04:22:26.528Z,9.92
2022-11-07T04:27:43.371Z,9.84
2022-11-07T04:32:56.590Z,9.99
2022-11-07T04:37:59.683Z,10.04
2022-11-07T04:43:03.379Z,10.15
2022-11-07T04:48:05.595Z,10.15
2022-11-07T04:53:07.701Z,10.20
2022-11-07T04:58:10.388Z,10.27
2022-11-07T05:03:12.869Z,10.39
2022-11-07T05:08:15.106Z,10.45
2022-11-07T05:13:18.523Z,10.41
2022-11-07T05:18:21.248Z,10.51
2022-11-07T05:23:23.155Z,10.57
2022-11-07T05:28:38.372Z,10.57
2022-11-07T05:33:41.699Z,10.65
2022-11-07T05:38:45.899Z,10.59
2022-11-07T05:43:48.204Z,10.55
2022-11-07T05:48:53.462Z,10.58
2022-11-07T05:53:57.591Z,10.70
2022-11-07T05:58:59.597Z,10.55
2022-11-07T06:04:04.137Z,10.78
2022-11-07T06:09:06.271Z,10.89
2022-11-07T06:14:08.407Z,10.71
2022-11-07T06:19:10.248Z,10.92
2022-11-07T06:24:15.236Z,11.02
2022-11-07T06:29:17.654Z,10.99
2022-11-07T06:34:19.667Z,11.09
2022-11-07T06:39:22.148Z,11.24
2022-11-07T06:44:24.052Z,11.39
2022-11-07T06:49:25.911Z,11.37
2022-11-07T06:54:27.998Z,11.40
2022-11-07T06:59:29.849Z,11.49
2022-11-07T07:04:31.874Z,11.57
2022-11-07T07:09:33.779Z,11.27
2022-11-07T07:14:36.011Z,11.52
2022-11-07T07:19:37.905Z,11.56
2022-11-07T07:24:39.996Z,11.48
2022-11-07T07:29:41.848Z,11.71
2022-11-07T07:53:09.011Z,11.14
2022-11-07T07:58:12.193Z,11.54
2022-11-07T08:03:14.541Z,11.75
2022-11-07T08:08:16.900Z,12.12
2022-11-07T08:13:19.159Z,12.19
2022-11-07T08:18:22.592Z,12.50
2022-11-07T08:23:24.868Z,12.96
2022-11-07T08:28:29.954Z,13.18
2022-11-07T08:33:32.632Z,13.39
2022-11-07T08:38:35.882Z,13.36
2022-11-07T08:43:37.804Z,13.68
2022-11-07T08:48:40.538Z,13.83
2022-11-07T08:53:48.677Z,13.78
2022-11-07T08:58:55.875Z,13.73
2022-11-07T09:03:58.712Z,13.86
2022-11-07T09:09:01.603Z,13.70
2022-11-07T09:14:03.664Z,13.53
2022-11-07T09:19:05.765Z,13.77
2022-11-07T09:24:08.361Z,13.95
2022-11-07T09:29:10.450Z,14.05
2022-11-07T09:34:12.660Z,13.91
2022-11-07T09:39:14.738Z,14.06
2022-11-07T09:44:55.087Z,14.42
2022-11-07T09:50:01.587Z,14.54
2022-11-07T09:55:27.881Z,14.74
2022-11-07T10:00:31.908Z,14.97
2022-11-07T10:06:01.585Z,15.09
2022-11-07T10:11:12.891Z,15.27
2022-11-07T10:16:24.437Z,15.45
2022-11-07T10:21:43.715Z,15.57
2022-11-07T10:26:45.826Z,15.44
2022-11-07T10:31:57.055Z,15.62
2022-11-07T10:36:59.055Z,15.77
2022-11-07T10:42:08.656Z,15.61
2022-11-07T10:47:24.621Z,15.54
2022-11-07T10:52:28.533Z,15.40
2022-11-07T10:57:30.609Z,15.33
2022-11-07T11:02:48.376Z,14.98
2022-11-07T11:07:50.644Z,15.17
2022-11-07T11:12:52.684Z,15.36
2022-11-07T11:18:05.618Z,15.25
2022-11-07T11:23:19.255Z,15.51
2022-11-07T11:28:28.027Z,15.30
2022-11-07T11:33:44.809Z,15.41
2022-11-07T11:39:00.576Z,15.26
2022-11-07T11:44:26.596Z,15.41
2022-11-07T11:49:30.858Z,15.58
2022-11-07T11:54:34.436Z,15.51
2022-11-07T11:59:42.536Z,15.32
2022-11-07T12:05:06.504Z,15.09
2022-11-07T12:10:13.291Z,15.21
2022-11-07T12:15:41.675Z,15.14
2022-11-07T12:21:01.939Z,14.99
2022-11-07T12:26:11.948Z,15.14
2022-11-07T12:31:40.150Z,15.24
2022-11-07T12:37:16.483Z,15.21
2022-11-07T12:42:39.503Z,15.16
2022-11-07T12:47:47.283Z,15.25
2022-11-07T12:53:20.549Z,15.25
2022-11-07T12:58:25.713Z,14.84
2022-11-07T13:04:10.611Z,14.53
2022-11-07T13:09:19.887Z,14.27
2022-11-07T13:14:37.109Z,14.19
2022-11-07T13:20:05.803Z,14.20
2022-11-07T13:25:17.394Z,14.38
2022-11-07T13:30:22.281Z,14.62
2022-11-07T13:35:54.070Z,14.43
2022-11-07T13:41:07.589Z,14.10
2022-11-07T13:46:18.089Z,14.24
2022-11-07T13:51:33.380Z,14.19
2022-11-07T13:56:38.709Z,14.05
2022-11-07T14:01:45.388Z,14.05
2022-11-07T14:06:49.354Z,13.96
2022-11-07T14:11:53.440Z,14.11
2022-11-07T14:17:00.664Z,14.04
2022-11-07T14:22:02.711Z,13.89
2022-11-07T14:27:13.741Z,13.75
2022-11-07T14:32:16.889Z,13.67
2022-11-07T14:37:24.843Z,13.62
2022-11-07T14:42:27.006Z,13.88
2022-11-07T14:47:32.403Z,13.79
2022-11-07T14:52:49.727Z,13.83
2022-11-07T14:57:52.492Z,13.83
2022-11-07T15:02:57.107Z,13.84
2022-11-07T15:07:59.948Z,13.67
2022-11-07T15:13:05.428Z,13.47
2022-11-07T15:18:07.707Z,13.49
2022-11-07T15:23:12.560Z,13.40
2022-11-07T15:28:17.778Z,13.46
2022-11-07T15:33:22.612Z,13.27
2022-11-07T15:38:27.129Z,13.34
2022-11-07T15:43:29.225Z,13.21
2022-11-07T15:48:40.904Z,13.45
2022-11-07T15:53:43.589Z,13.30
2022-11-07T15:58:45.711Z,13.43
2022-11-07T16:03:47.760Z,13.41
2022-11-07T16:08:49.810Z,13.38
2022-11-07T16:13:59.220Z,13.39
2022-11-07T16:19:16.136Z,13.49
2022-11-07T16:24:18.239Z,13.56
2022-11-07T16:29:20.180Z,13.35
2022-11-07T16:34:22.027Z,13.50
2022-11-07T16:39:23.935Z,13.26
2022-11-07T16:44:26.624Z,13.38
2022-11-07T16:49:32.024Z,13.45
2022-11-07T16:54:34.110Z,13.51
2022-11-07T16:59:36.199Z,13.43
2022-11-07T17:04:38.135Z,13.33
2022-11-07T17:09:41.534Z,13.30
2022-11-07T17:14:44.897Z,13.26
2022-11-07T17:19:46.856Z,13.21
2022-11-07T17:24:49.054Z,13.35
2022-11-07T17:29:52.548Z,13.40
2022-11-07T17:35:18.198Z,13.37
2022-11-07T17:40:27.231Z,13.41
2022-11-07T17:45:29.209Z,13.35
2022-11-07T17:50:31.439Z,13.26
2022-11-07T17:55:33.443Z,13.24
2022-11-07T18:00:35.997Z,13.22
2022-11-07T18:05:37.915Z,13.19
2022-11-07T18:10:39.811Z,13.12
2022-11-07T18:15:43.472Z,13.23
2022-11-07T18:20:52.058Z,13.23
2022-11-07T18:26:16.708Z,12.99
2022-11-07T18:31:21.154Z,13.16
2022-11-07T18:36:23.217Z,13.05
2022-11-07T18:41:25.227Z,13.02
2022-11-07T18:46:27.228Z,12.85
2022-11-07T18:56:46.784Z,12.79
2022-11-07T19:01:48.801Z,12.86
2022-11-07T19:06:59.730Z,12.56
2022-11-07T19:12:01.785Z,12.29
2022-11-07T19:17:04.896Z,12.02
2022-11-07T19:22:06.789Z,11.89
2022-11-07T19:27:08.693Z,11.81
2022-11-07T19:32:11.027Z,11.70
2022-11-07T19:37:12.920Z,11.64
2022-11-07T19:42:17.728Z,11.62
2022-11-07T19:47:26.531Z,11.75
2022-11-07T19:52:33.520Z,11.99
2022-11-07T19:57:35.611Z,12.15
2022-11-07T20:02:43.951Z,12.28
2022-11-07T20:07:47.999Z,12.44
2022-11-07T20:12:54.220Z,12.47
2022-11-07T20:17:56.372Z,12.17
2022-11-07T20:23:00.256Z,11.88
2022-11-07T20:28:02.233Z,11.57
2022-11-07T20:33:04.288Z,11.37
2022-11-07T20:38:06.443Z,11.20
2022-11-07T20:43:08.760Z,11.04
2022-11-07T20:48:10.715Z,10.93
2022-11-07T20:53:12.780Z,10.88
2022-11-07T20:58:14.957Z,10.75
2022-11-07T21:03:17.128Z,10.71
2022-11-07T21:08:19.247Z,10.66
2022-11-07T21:13:22.012Z,10.63
2022-11-07T21:18:24.720Z,10.59
2022-11-07T21:23:27.091Z,10.59
2022-11-07T21:28:29.129Z,10.58
2022-11-07T21:33:31.714Z,10.45
2022-11-07T21:38:33.657Z,10.41
2022-11-07T21:43:36.328Z,10.39
2022-11-07T21:48:39.279Z,10.25
2022-11-07T21:53:41.873Z,10.20
2022-11-07T21:58:44.851Z,10.13
2022-11-07T22:09:10.621Z,9.98
2022-11-07T22:14:17.900Z,9.95
2022-11-07T22:19:20.001Z,9.95
2022-11-07T22:24:23.807Z,9.90
2022-11-07T22:29:25.805Z,9.93
2022-11-07T22:34:27.812Z,9.88
2022-11-07T22:39:29.723Z,9.88
2022-11-07T22:44:31.766Z,9.84
2022-11-07T22:49:33.844Z,9.95
2022-11-07T22:54:35.784Z,10.13
2022-11-07T22:59:37.625Z,10.12
2022-11-07T23:04:39.764Z,9.98
2022-11-07T23:09:41.711Z,9.94
2022-11-07T23:14:46.616Z,10.07
2022-11-07T23:19:53.332Z,10.24
2022-11-07T23:24:55.488Z,10.41
2022-11-07T23:29:57.598Z,10.55
2022-11-07T23:34:59.463Z,10.65
2022-11-07T23:40:01.340Z,10.90
2022-11-07T23:45:21.856Z,10.84
2022-11-07T23:50:42.241Z,10.83
2022-11-07T23:55:44.121Z,10.93
